createdAt,value
2017-07-21T00:14:01.909Z,16.80
2017-07-21T00:16:30.149Z,17.20
2017-07-21T00:18:57.617Z,17.20
2017-07-21T00:21:25.373Z,17.10
2017-07-21T00:23:52.841Z,17.00
2017-07-21T00:26:20.573Z,16.90
2017-07-21T00:28:48.066Z,16.80
2017-07-21T00:31:15.540Z,16.80
2017-07-21T00:33:43.785Z,16.60
2017-07-21T00:36:11.273Z,16.60
2017-07-21T00:38:39.509Z,16.60
2017-07-21T00:41:07.017Z,16.50
2017-07-21T00:43:35.424Z,16.50
2017-07-21T00:46:03.092Z,16.50
2017-07-21T00:48:30.702Z,16.50
2017-07-21T00:50:58.961Z,16.40
2017-07-21T00:53:26.433Z,16.40
2017-07-21T00:55:54.672Z,16.40
2017-07-21T00:58:22.161Z,16.40
2017-07-21T01:00:49.633Z,16.40
2017-07-21T01:03:17.868Z,16.40
2017-07-21T01:05:45.352Z,16.40
2017-07-21T01:08:12.821Z,16.40
2017-07-21T01:10:41.061Z,16.30
2017-07-21T01:13:08.554Z,16.30
2017-07-21T01:15:36.789Z,16.20
2017-07-21T01:18:04.289Z,16.20
2017-07-21T01:20:32.541Z,16.20
2017-07-21T01:23:00.224Z,16.10
2017-07-21T01:25:28.461Z,16.10
2017-07-21T01:27:55.962Z,16.10
2017-07-21T01:30:24.201Z,15.90
2017-07-21T01:32:51.706Z,15.90
2017-07-21T01:35:19.240Z,15.90
2017-07-21T01:37:47.477Z,15.70
2017-07-21T01:40:14.957Z,15.70
2017-07-21T01:42:42.469Z,15.70
2017-07-21T01:45:10.037Z,15.60
2017-07-21T01:47:37.505Z,15.60
2017-07-21T01:50:04.993Z,15.60
2017-07-21T01:52:32.500Z,15.70
2017-07-21T01:54:59.973Z,15.70
2017-07-21T01:57:27.724Z,15.80
2017-07-21T01:59:55.291Z,15.80
2017-07-21T02:02:23.049Z,15.90
2017-07-21T02:04:50.551Z,15.90
2017-07-21T02:07:18.040Z,15.90
2017-07-21T02:09:45.577Z,15.80
2017-07-21T02:12:13.837Z,15.70
2017-07-21T02:14:41.628Z,15.70
2017-07-21T02:17:09.864Z,15.70
2017-07-21T02:19:37.356Z,15.60
2017-07-21T02:22:05.593Z,15.70
2017-07-21T02:24:33.069Z,15.70
2017-07-21T02:27:00.577Z,15.70
2017-07-21T02:29:28.045Z,15.70
2017-07-21T02:31:55.520Z,15.70
2017-07-21T02:34:23.009Z,15.70
2017-07-21T02:36:51.292Z,15.60
2017-07-21T02:39:19.525Z,15.50
2017-07-21T02:41:47.168Z,15.50
2017-07-21T02:44:15.496Z,15.50
2017-07-21T02:46:42.968Z,15.50
2017-07-21T02:49:10.513Z,15.50
2017-07-21T02:51:38.745Z,15.40
2017-07-21T02:54:06.217Z,15.40
2017-07-21T02:56:33.709Z,15.40
2017-07-21T02:59:01.961Z,15.40
2017-07-21T03:01:29.429Z,15.40
2017-07-21T03:03:56.917Z,15.40
2017-07-21T03:06:24.394Z,15.40
2017-07-21T03:08:51.981Z,15.40
2017-07-21T03:11:19.473Z,15.40
2017-07-21T03:13:47.713Z,15.40
2017-07-21T03:16:15.185Z,15.40
2017-07-21T03:18:42.677Z,15.40
2017-07-21T03:21:10.151Z,15.50
2017-07-21T03:23:37.621Z,15.50
2017-07-21T03:26:05.109Z,15.50
2017-07-21T03:28:32.578Z,15.50
2017-07-21T03:31:00.834Z,15.50
2017-07-21T03:33:28.325Z,15.50
2017-07-21T03:35:57.053Z,15.30
2017-07-21T03:38:24.524Z,15.20
2017-07-21T03:40:52.014Z,15.20
2017-07-21T03:43:19.481Z,15.20
2017-07-21T03:45:47.717Z,15.10
2017-07-21T03:48:15.209Z,15.10
2017-07-21T03:50:43.445Z,15.10
2017-07-21T03:53:11.189Z,15.10
2017-07-21T03:55:38.689Z,15.00
2017-07-21T03:58:06.164Z,15.00
2017-07-21T04:00:34.408Z,15.00
2017-07-21T04:03:02.031Z,14.90
2017-07-21T04:05:29.513Z,14.90
2017-07-21T04:07:56.985Z,14.90
2017-07-21T04:10:24.477Z,14.90
2017-07-21T04:12:52.714Z,14.80
2017-07-21T04:15:20.190Z,14.80
2017-07-21T04:17:47.686Z,14.90
2017-07-21T04:20:15.161Z,14.90
2017-07-21T04:22:42.629Z,15.00
2017-07-21T04:25:10.121Z,15.00
2017-07-21T04:27:37.623Z,15.10
2017-07-21T04:30:05.450Z,15.20
2017-07-21T04:32:33.704Z,15.40
2017-07-21T04:35:01.177Z,15.40
2017-07-21T04:37:28.655Z,15.50
2017-07-21T04:39:56.914Z,15.90
2017-07-21T04:42:25.441Z,16.10
2017-07-21T04:44:52.953Z,16.10
2017-07-21T04:47:21.212Z,16.20
2017-07-21T04:49:48.681Z,16.20
2017-07-21T04:52:16.150Z,16.20
2017-07-21T04:54:44.401Z,16.30
2017-07-21T04:57:13.388Z,16.40
2017-07-21T04:59:40.860Z,16.40
2017-07-21T05:02:08.353Z,16.40
2017-07-21T05:04:35.825Z,16.60
2017-07-21T05:07:03.593Z,16.60
2017-07-21T05:09:31.084Z,16.70
2017-07-21T05:11:58.557Z,17.20
2017-07-21T05:14:26.797Z,17.90
2017-07-21T05:16:54.288Z,17.90
2017-07-21T05:19:21.853Z,18.00
2017-07-21T05:21:50.088Z,18.30
2017-07-21T05:24:17.581Z,18.30
2017-07-21T05:26:45.817Z,18.60
2017-07-21T05:29:13.286Z,18.60
2017-07-21T05:31:40.773Z,19.00
2017-07-21T05:34:09.050Z,18.70
2017-07-21T05:36:37.284Z,18.60
2017-07-21T05:39:04.785Z,18.60
2017-07-21T05:41:33.024Z,19.00
2017-07-21T05:44:00.493Z,18.90
2017-07-21T05:46:27.990Z,19.00
2017-07-21T05:48:55.780Z,19.20
2017-07-21T05:51:23.260Z,19.60
2017-07-21T05:53:50.749Z,20.00
2017-07-21T05:56:18.988Z,19.90
2017-07-21T05:58:46.732Z,19.90
2017-07-21T06:01:14.308Z,19.70
2017-07-21T06:03:41.785Z,19.60
2017-07-21T06:06:09.256Z,19.70
2017-07-21T06:08:36.750Z,19.80
2017-07-21T06:11:04.221Z,19.70
2017-07-21T06:13:31.737Z,19.60
2017-07-21T06:15:59.997Z,19.70
2017-07-21T06:18:27.570Z,19.70
2017-07-21T06:20:55.817Z,20.10
2017-07-21T06:23:23.306Z,20.10
2017-07-21T06:25:51.833Z,20.10
2017-07-21T06:28:19.305Z,20.10
2017-07-21T06:30:47.201Z,20.20
2017-07-21T06:33:22.486Z,20.20
2017-07-21T06:35:49.981Z,20.30
2017-07-21T06:38:17.473Z,20.20
2017-07-21T06:40:45.714Z,20.40
2017-07-21T06:43:13.239Z,20.40
2017-07-21T06:45:40.716Z,20.70
2017-07-21T06:48:08.213Z,20.90
2017-07-21T06:50:36.736Z,21.50
2017-07-21T06:53:04.209Z,21.50
2017-07-21T06:55:31.837Z,21.80
2017-07-21T06:57:59.821Z,21.90
2017-07-21T07:00:27.289Z,21.90
2017-07-21T07:02:54.757Z,22.20
2017-07-21T07:05:22.244Z,22.70
2017-07-21T07:07:49.716Z,23.20
2017-07-21T07:10:17.187Z,23.40
2017-07-21T07:12:44.681Z,23.50
2017-07-21T07:15:12.148Z,23.60
2017-07-21T07:17:39.617Z,23.70
2017-07-21T07:20:07.109Z,23.80
2017-07-21T07:22:34.836Z,23.80
2017-07-21T07:25:02.322Z,24.40
2017-07-21T07:27:30.577Z,24.70
2017-07-21T07:29:58.045Z,24.70
2017-07-21T07:32:26.280Z,25.00
2017-07-21T07:34:53.773Z,24.90
2017-07-21T07:37:22.008Z,25.20
2017-07-21T07:39:49.480Z,25.20
2017-07-21T07:42:16.973Z,25.40
2017-07-21T07:44:45.209Z,25.80
2017-07-21T07:47:12.679Z,25.70
2017-07-21T07:49:40.398Z,25.90
2017-07-21T07:52:07.869Z,25.90
2017-07-21T07:54:35.337Z,26.00
2017-07-21T07:57:02.829Z,26.80
2017-07-21T07:59:31.069Z,26.90
2017-07-21T08:01:58.541Z,26.90
2017-07-21T08:04:26.046Z,27.40
2017-07-21T08:06:53.514Z,27.50
2017-07-21T08:09:20.988Z,27.50
2017-07-21T08:11:48.481Z,27.50
2017-07-21T08:14:15.953Z,27.30
2017-07-21T08:16:44.369Z,27.90
2017-07-21T08:19:11.861Z,27.90
2017-07-21T08:21:39.340Z,27.90
2017-07-21T08:24:07.599Z,28.70
2017-07-21T08:26:35.088Z,28.60
2017-07-21T08:29:03.325Z,29.00
2017-07-21T08:31:30.792Z,29.00
2017-07-21T08:33:58.368Z,29.10
2017-07-21T08:36:26.601Z,28.70
2017-07-21T08:38:54.073Z,28.70
2017-07-21T08:41:21.565Z,28.90
2017-07-21T08:43:49.928Z,29.10
2017-07-21T08:46:17.402Z,29.10
2017-07-21T08:48:44.897Z,29.00
2017-07-21T08:51:12.672Z,29.00
2017-07-21T08:53:40.140Z,28.70
2017-07-21T08:56:07.632Z,28.50
2017-07-21T08:58:35.865Z,28.50
2017-07-21T09:01:03.337Z,28.60
2017-07-21T09:03:30.830Z,28.90
2017-07-21T09:05:58.296Z,29.30
2017-07-21T09:08:26.060Z,29.60
2017-07-21T09:10:54.234Z,29.50
2017-07-21T09:13:21.710Z,29.50
2017-07-21T09:15:49.182Z,29.80
2017-07-21T09:18:16.675Z,29.80
2017-07-21T09:20:44.920Z,30.30
2017-07-21T09:23:12.420Z,30.30
2017-07-21T09:25:39.969Z,30.80
2017-07-21T09:28:07.440Z,30.30
2017-07-21T09:30:35.237Z,29.90
2017-07-21T09:33:02.749Z,30.20
2017-07-21T09:35:31.004Z,29.30
2017-07-21T09:37:58.737Z,29.30
2017-07-21T09:40:26.225Z,29.30
2017-07-21T09:42:53.693Z,29.70
2017-07-21T09:45:22.603Z,30.40
2017-07-21T09:47:50.097Z,30.80
2017-07-21T09:50:17.565Z,31.20
2017-07-21T09:52:45.417Z,31.50
2017-07-21T09:55:13.483Z,31.80
2017-07-21T09:57:41.674Z,31.50
2017-07-21T10:00:09.155Z,32.00
2017-07-21T10:02:36.644Z,31.70
2017-07-21T10:05:04.113Z,31.20
2017-07-21T10:07:31.582Z,30.30
2017-07-21T10:09:59.073Z,30.00
2017-07-21T10:12:26.542Z,29.90
2017-07-21T10:14:54.017Z,29.40
2017-07-21T10:17:22.333Z,29.20
2017-07-21T10:19:49.805Z,29.20
2017-07-21T10:22:17.321Z,29.30
2017-07-21T10:24:45.296Z,29.70
2017-07-21T10:27:12.765Z,29.40
2017-07-21T10:29:40.237Z,29.70
2017-07-21T10:32:07.748Z,30.50
2017-07-21T10:34:35.990Z,31.00
2017-07-21T10:37:03.461Z,31.00
2017-07-21T10:39:30.953Z,30.80
2017-07-21T10:41:58.437Z,31.00
2017-07-21T10:44:25.909Z,30.80
2017-07-21T10:46:53.428Z,30.80
2017-07-21T10:49:20.925Z,31.40
2017-07-21T10:51:48.425Z,31.50
2017-07-21T10:54:17.004Z,30.90
2017-07-21T10:56:45.241Z,31.00
2017-07-21T10:59:12.712Z,31.00
2017-07-21T11:01:40.445Z,30.90
2017-07-21T11:04:07.917Z,31.40
2017-07-21T11:06:35.389Z,32.40
2017-07-21T11:09:02.877Z,32.90
2017-07-21T11:11:30.348Z,31.90
2017-07-21T11:13:57.885Z,31.30
2017-07-21T11:16:26.150Z,31.00
2017-07-21T11:18:53.621Z,30.90
2017-07-21T11:21:21.863Z,31.50
2017-07-21T11:23:49.377Z,31.50
2017-07-21T11:26:16.885Z,31.20
2017-07-21T11:28:44.356Z,30.80
2017-07-21T11:31:11.849Z,30.90
2017-07-21T11:33:39.332Z,31.20
2017-07-21T11:36:06.805Z,30.30
2017-07-21T11:38:34.305Z,30.90
2017-07-21T11:41:02.547Z,31.30
2017-07-21T11:43:30.017Z,31.30
2017-07-21T11:45:57.588Z,30.80
2017-07-21T11:48:25.825Z,31.70
2017-07-21T11:50:53.297Z,31.70
2017-07-21T11:53:20.810Z,31.40
2017-07-21T11:55:48.303Z,31.30
2017-07-21T11:58:15.773Z,31.40
2017-07-21T12:00:43.260Z,31.30
2017-07-21T12:03:10.732Z,31.70
2017-07-21T12:05:38.513Z,31.40
2017-07-21T12:08:06.009Z,31.70
2017-07-21T12:10:33.477Z,32.00
2017-07-21T12:13:01.722Z,30.80
2017-07-21T12:15:29.321Z,30.80
2017-07-21T12:17:57.561Z,31.20
2017-07-21T12:20:25.072Z,31.20
2017-07-21T12:22:52.564Z,31.30
2017-07-21T12:25:20.273Z,31.60
2017-07-21T12:27:48.708Z,32.20
2017-07-21T12:30:16.302Z,32.20
2017-07-21T12:32:44.545Z,30.30
2017-07-21T12:35:12.014Z,30.30
2017-07-21T12:37:39.505Z,30.60
2017-07-21T12:40:06.997Z,31.00
2017-07-21T12:42:34.468Z,31.50
2017-07-21T12:45:01.960Z,31.70
2017-07-21T12:47:29.428Z,32.10
2017-07-21T12:49:57.684Z,31.60
2017-07-21T12:52:25.189Z,31.60
2017-07-21T12:54:52.877Z,31.40
2017-07-21T12:57:20.359Z,31.20
2017-07-21T12:59:47.949Z,31.40
2017-07-21T13:02:15.435Z,30.70
2017-07-21T13:04:42.908Z,30.10
2017-07-21T13:07:10.489Z,29.90
2017-07-21T13:09:38.007Z,30.20
2017-07-21T13:12:05.493Z,30.70
2017-07-21T13:14:34.035Z,31.00
2017-07-21T13:17:01.570Z,30.90
2017-07-21T13:19:30.037Z,31.10
2017-07-21T13:21:57.531Z,31.10
2017-07-21T13:24:25.002Z,30.70
2017-07-21T13:26:52.469Z,30.40
2017-07-21T13:29:19.956Z,30.40
2017-07-21T13:31:47.428Z,30.70
2017-07-21T13:34:14.896Z,30.80
2017-07-21T13:36:43.162Z,30.30
2017-07-21T13:39:11.403Z,30.40
2017-07-21T13:41:39.467Z,30.50
2017-07-21T13:44:07.776Z,30.50
2017-07-21T13:46:35.253Z,30.50
2017-07-21T13:49:03.490Z,30.90
2017-07-21T13:51:30.980Z,30.90
2017-07-21T13:53:59.501Z,29.40
2017-07-21T13:56:27.265Z,29.40
2017-07-21T13:58:55.105Z,29.00
2017-07-21T14:01:22.648Z,28.80
2017-07-21T14:03:50.885Z,28.50
2017-07-21T14:06:18.628Z,28.50
2017-07-21T14:08:46.108Z,28.40
2017-07-21T14:11:13.580Z,28.50
2017-07-21T14:13:41.079Z,28.80
2017-07-21T14:16:08.551Z,28.80
2017-07-21T14:18:36.030Z,28.70
2017-07-21T14:21:03.525Z,28.40
2017-07-21T14:23:31.761Z,28.50
2017-07-21T14:25:59.453Z,28.50
2017-07-21T14:28:27.332Z,28.60
2017-07-21T14:30:54.889Z,28.70
2017-07-21T14:33:23.138Z,28.80
2017-07-21T14:35:50.629Z,28.70
2017-07-21T14:38:18.881Z,28.90
2017-07-21T14:40:46.354Z,28.90
2017-07-21T14:43:14.613Z,29.20
2017-07-21T14:45:42.089Z,29.10
2017-07-21T14:48:10.325Z,29.00
2017-07-21T14:50:37.826Z,29.00
2017-07-21T14:53:06.068Z,28.60
2017-07-21T14:55:33.538Z,28.60
2017-07-21T14:58:01.029Z,28.90
2017-07-21T15:00:28.504Z,29.00
2017-07-21T15:02:56.016Z,28.90
2017-07-21T15:05:24.273Z,29.10
2017-07-21T15:07:51.830Z,29.00
2017-07-21T15:10:19.301Z,29.10
2017-07-21T15:12:46.793Z,29.10
2017-07-21T15:15:14.261Z,29.00
2017-07-21T15:17:41.772Z,28.80
2017-07-21T15:20:09.265Z,28.70
2017-07-21T15:22:36.734Z,28.70
2017-07-21T15:25:04.225Z,28.80
2017-07-21T15:27:31.856Z,28.80
2017-07-21T15:29:59.345Z,28.80
2017-07-21T15:32:26.825Z,28.90
2017-07-21T15:34:55.105Z,29.00
2017-07-21T15:37:23.348Z,29.10
2017-07-21T15:39:50.837Z,29.10
2017-07-21T15:42:19.098Z,29.00
2017-07-21T15:44:46.574Z,28.90
2017-07-21T15:47:14.809Z,29.00
2017-07-21T15:49:42.306Z,29.00
2017-07-21T15:52:10.545Z,28.90
2017-07-21T15:54:38.021Z,28.90
2017-07-21T15:57:05.541Z,28.90
2017-07-21T15:59:33.016Z,28.90
2017-07-21T16:02:00.495Z,28.90
2017-07-21T16:04:28.069Z,28.80
2017-07-21T16:06:56.687Z,28.80
2017-07-21T16:09:24.656Z,28.80
2017-07-21T16:11:53.806Z,28.90
2017-07-21T16:14:22.027Z,28.90
2017-07-21T16:16:49.529Z,28.90
2017-07-21T16:19:17.144Z,28.90
2017-07-21T16:21:44.622Z,28.80
2017-07-21T16:24:12.260Z,28.80
2017-07-21T16:26:39.749Z,28.80
2017-07-21T16:29:07.231Z,28.80
2017-07-21T16:31:35.761Z,28.60
2017-07-21T16:34:03.254Z,28.60
2017-07-21T16:36:30.828Z,28.50
2017-07-21T16:38:59.080Z,28.40
2017-07-21T16:41:26.712Z,28.40
2017-07-21T16:43:54.229Z,28.50
2017-07-21T16:46:22.469Z,28.50
2017-07-21T16:48:49.962Z,28.50
2017-07-21T16:51:18.205Z,28.50
2017-07-21T16:53:45.678Z,28.50
2017-07-21T16:56:13.169Z,28.50
2017-07-21T16:58:40.657Z,28.40
2017-07-21T17:01:08.415Z,28.40
2017-07-21T17:03:35.914Z,28.40
2017-07-21T17:06:03.386Z,28.40
2017-07-21T17:08:31.629Z,28.50
2017-07-21T17:10:59.194Z,28.40
2017-07-21T17:13:26.681Z,28.50
2017-07-21T17:15:54.918Z,28.40
2017-07-21T17:18:22.409Z,28.40
2017-07-21T17:20:50.645Z,28.40
2017-07-21T17:23:18.113Z,28.40
2017-07-21T17:25:45.610Z,28.40
2017-07-21T17:28:13.083Z,28.20
2017-07-21T17:30:40.565Z,28.10
2017-07-21T17:33:08.057Z,28.00
2017-07-21T17:35:35.528Z,27.90
2017-07-21T17:38:03.761Z,27.80
2017-07-21T17:40:31.243Z,27.80
2017-07-21T17:42:58.713Z,27.70
2017-07-21T17:45:26.949Z,27.60
2017-07-21T17:47:54.441Z,27.60
2017-07-21T17:50:22.684Z,27.40
2017-07-21T17:52:50.153Z,27.40
2017-07-21T17:55:17.641Z,27.20
2017-07-21T17:57:46.156Z,27.00
2017-07-21T18:00:13.625Z,27.00
2017-07-21T18:02:41.546Z,26.90
2017-07-21T18:05:09.813Z,26.80
2017-07-21T18:07:38.049Z,26.70
2017-07-21T18:10:05.545Z,26.70
2017-07-21T18:12:33.781Z,26.50
2017-07-21T18:15:01.250Z,26.40
2017-07-21T18:17:28.737Z,26.40
2017-07-21T18:19:56.973Z,26.20
2017-07-21T18:22:24.709Z,26.20
2017-07-21T18:24:52.232Z,26.10
2017-07-21T18:27:20.469Z,25.90
2017-07-21T18:29:47.936Z,25.90
2017-07-21T18:32:15.429Z,25.90
2017-07-21T18:34:42.906Z,25.90
2017-07-21T18:37:10.433Z,25.80
2017-07-21T18:39:38.689Z,25.80
2017-07-21T18:42:06.167Z,25.70
2017-07-21T18:44:34.409Z,25.60
2017-07-21T18:47:02.150Z,25.60
2017-07-21T18:49:30.228Z,25.50
2017-07-21T18:51:57.702Z,25.40
2017-07-21T18:54:25.436Z,25.40
2017-07-21T18:56:52.936Z,25.40
2017-07-21T18:59:20.405Z,25.30
2017-07-21T19:01:48.665Z,25.30
2017-07-21T19:04:16.137Z,25.30
2017-07-21T19:06:44.372Z,25.20
2017-07-21T19:09:11.866Z,25.20
2017-07-21T19:11:40.114Z,25.20
2017-07-21T19:14:07.582Z,25.20
2017-07-21T19:16:35.144Z,25.20
2017-07-21T19:19:02.617Z,25.20
2017-07-21T19:21:30.856Z,25.10
2017-07-21T19:23:58.364Z,25.10
2017-07-21T19:26:25.873Z,25.10
2017-07-21T19:28:53.342Z,25.00
2017-07-21T19:31:20.833Z,24.90
2017-07-21T19:33:49.073Z,24.80
2017-07-21T19:36:16.545Z,24.80
2017-07-21T19:38:44.037Z,24.70
2017-07-21T19:41:11.506Z,24.70
2017-07-21T19:43:39.160Z,24.70
2017-07-21T19:46:06.653Z,24.70
2017-07-21T19:48:34.120Z,24.70
2017-07-21T19:51:01.589Z,24.60
2017-07-21T19:53:29.082Z,24.60
2017-07-21T19:55:56.560Z,24.40
2017-07-21T19:58:24.329Z,24.30
2017-07-21T20:00:51.821Z,24.40
2017-07-21T20:03:19.297Z,24.30
2017-07-21T20:05:47.532Z,24.30
2017-07-21T20:08:15.034Z,24.20
2017-07-21T20:10:43.568Z,24.10
2017-07-21T20:13:11.036Z,24.10
2017-07-21T20:15:38.524Z,24.00
2017-07-21T20:18:06.761Z,23.90
2017-07-21T20:20:34.237Z,23.90
2017-07-21T20:23:01.732Z,24.00
2017-07-21T20:25:29.202Z,23.90
2017-07-21T20:27:56.672Z,23.90
2017-07-21T20:30:24.161Z,23.70
2017-07-21T20:32:51.645Z,23.50
2017-07-21T20:35:19.880Z,23.30
2017-07-21T20:37:47.881Z,23.20
2017-07-21T20:40:16.125Z,23.20
2017-07-21T20:42:43.593Z,23.10
2017-07-21T20:45:11.080Z,23.00
2017-07-21T20:47:39.317Z,22.90
2017-07-21T20:50:06.784Z,22.90
2017-07-21T20:52:35.923Z,22.90
2017-07-21T20:55:03.408Z,22.80
2017-07-21T20:57:30.885Z,22.70
2017-07-21T20:59:58.377Z,22.70
2017-07-21T21:02:26.613Z,22.50
2017-07-21T21:04:54.142Z,22.50
2017-07-21T21:07:21.633Z,22.50
2017-07-21T21:09:49.157Z,22.20
2017-07-21T21:12:16.629Z,21.70
2017-07-21T21:14:44.125Z,21.50
2017-07-21T21:17:11.842Z,21.20
2017-07-21T21:19:39.321Z,20.80
2017-07-21T21:22:06.804Z,20.70
2017-07-21T21:24:35.337Z,20.30
2017-07-21T21:27:02.809Z,20.30
2017-07-21T21:29:30.313Z,20.30
2017-07-21T21:31:58.561Z,19.60
2017-07-21T21:34:26.030Z,19.60
2017-07-21T21:36:53.516Z,19.30
2017-07-21T21:39:21.000Z,19.10
2017-07-21T21:41:48.502Z,18.80
2017-07-21T21:44:16.769Z,18.20
2017-07-21T21:46:44.241Z,18.20
2017-07-21T21:49:12.478Z,17.40
2017-07-21T21:51:39.972Z,17.40
2017-07-21T21:54:08.209Z,17.20
2017-07-21T21:56:35.680Z,17.20
2017-07-21T21:59:03.173Z,17.30
2017-07-21T22:01:31.889Z,17.40
2017-07-21T22:03:59.358Z,17.40
2017-07-21T22:06:27.024Z,17.50
2017-07-21T22:08:54.496Z,17.50
2017-07-21T22:11:21.966Z,17.60
2017-07-21T22:13:49.452Z,17.60
2017-07-21T22:16:17.722Z,17.50
2017-07-21T22:18:45.202Z,17.50
2017-07-21T22:21:12.714Z,17.50
2017-07-21T22:23:40.825Z,17.60
2017-07-21T22:26:08.296Z,17.70
2017-07-21T22:28:36.068Z,17.70
2017-07-21T22:31:03.541Z,17.50
2017-07-21T22:33:31.286Z,17.40
2017-07-21T22:35:58.789Z,17.30
2017-07-21T22:38:26.261Z,17.10
2017-07-21T22:40:54.496Z,16.90
2017-07-21T22:43:22.031Z,16.90
2017-07-21T22:45:49.501Z,16.80
2017-07-21T22:48:16.977Z,16.70
2017-07-21T22:50:44.469Z,16.80
2017-07-21T22:53:13.036Z,17.10
2017-07-21T22:55:40.505Z,17.10
2017-07-21T22:58:08.782Z,17.10
2017-07-21T23:00:37.016Z,17.00
2017-07-21T23:03:04.537Z,17.00
2017-07-21T23:05:32.321Z,17.00
2017-07-21T23:07:59.797Z,16.90
2017-07-21T23:10:27.265Z,17.10
2017-07-21T23:12:54.753Z,17.20
2017-07-21T23:15:22.996Z,17.20
2017-07-21T23:17:50.465Z,17.20
2017-07-21T23:20:17.961Z,17.10
2017-07-21T23:22:45.430Z,17.00
2017-07-21T23:25:12.901Z,17.00
2017-07-21T23:27:40.392Z,17.00
2017-07-21T23:30:07.860Z,17.00
2017-07-21T23:32:36.101Z,17.20
2017-07-21T23:35:03.594Z,17.20
2017-07-21T23:37:31.832Z,17.30
2017-07-21T23:39:59.301Z,17.30
2017-07-21T23:42:26.793Z,17.30
2017-07-21T23:44:54.276Z,17.20
2017-07-21T23:47:21.745Z,17.10
2017-07-21T23:49:49.236Z,17.10
2017-07-21T23:52:16.709Z,17.10
2017-07-21T23:54:44.944Z,17.30
2017-07-21T23:57:12.433Z,17.30
2017-07-21T23:59:39.901Z,17.40
